Nearby METAR Reports

 

KELM - Elmira, New York, USA
Distance from station: W 13mi, 20km
Updated: Mon, 20-Feb-2017 7:53am EST
Overcast
Overcast
 Wind from NE
Wind: NE 6 mph , 9 km/h
Temperature: 36°F , 2°C
Wind Chill: 31°F , -1°C
Dew Point: 28°F , -2°C
Humidity: 75%
Barometer: 30.25 inHg , 1024.4 hPa
Clouds: Overcast
Visibility: 10 miles , 16 km
Cloud details: Overcast 1800 ft
2017/02/20 12:53 KELM 201253Z 04005KT 10SM OVC018 02/M02 A3025 RMK AO2 SLP252 T00171022
KITH - Ithaca/Tompkins, New York, USA
Distance from station: NNE 24mi, 39km
Updated: Mon, 20-Feb-2017 7:56am EST
Mostly cloudy
Mostly cloudy
 Wind from N
Wind: N 7 mph , 11 km/h
Temperature: 30°F , -1°C
Wind Chill: 23°F , -5°C
Dew Point: 27°F , -3°C
Humidity: 86%
Barometer: 30.26 inHg , 1024.7 hPa
Clouds: Mostly cloudy
Visibility: 10 miles , 16 km
Cloud details: Mostly cloudy 2400 ft
2017/02/20 12:56 KITH 201256Z 35006KT 10SM BKN024 M01/M03 A3026 RMK AO2 SLP257 T10061033
KBGM - Binghamton, New York, USA
Distance from station: E 35mi, 56km
Updated: Mon, 20-Feb-2017 8:00am EST
Mostly cloudy
Mostly cloudy
 Wind from N
Wind: N 13 mph , 20 km/h
Temperature: 28°F , -2°C
Wind Chill: 17°F , -8°C
Dew Point: 25°F , -4°C
Humidity: 86%
Barometer: 30.20 inHg , 1022.7 hPa
Clouds: Mostly cloudy
Visibility: 10 miles , 16 km
Cloud details: Mostly cloudy 2100 ft
2017/02/20 13:00 KBGM 201300Z 35011KT 10SM BKN021 M02/M04 A3020 RMK AO2 T10171039
 
KPEO - Penn Yan, New York, USA
Distance from station: NNW 40mi, 64km
Updated: Mon, 20-Feb-2017 7:53am EST
Overcast
Overcast
 Wind from varies
Wind: varies 6 mph , 9 km/h
Temperature: 34°F , 1°C
Wind Chill: 29°F , -2°C
Dew Point: 25°F , -4°C
Humidity: 70%
Barometer: 30.28 inHg , 1025.4 hPa
Clouds: Overcast
Visibility: 10 miles , 16 km
Cloud details: Overcast 1700 ft
2017/02/20 12:53 KPEO 201253Z AUTO VRB05KT 10SM OVC017 01/M04 A3028 RMK AO2 SLP260 T00061039 $
KDSV - Dansville, New York, USA
Distance from station: WNW 61mi, 99km
Updated: Mon, 20-Feb-2017 7:54am EST
Overcast
Overcast
 Wind from NW
Wind: NW 5 mph , 7 km/h
Temperature: 30°F , -1°C
Wind Chill: 25°F , -4°C
Dew Point: 28°F , -2°C
Humidity: 93%
Barometer: 30.30 inHg , 1026.1 hPa
Clouds: Overcast
Visibility: 9 miles , 14 km
Cloud details: Overcast 2100 ft
2017/02/20 12:54 KDSV 201254Z AUTO 31004KT 9SM OVC021 M01/M02 A3030 RMK AO2 SLP275 T10061017
KIPT - Williamsport, Pennsylvania, USA
Distance from station: SSW 64mi, 102km
Updated: Mon, 20-Feb-2017 7:54am EST
Clear
Clear
 Wind from SW
Wind: SW 6 mph , 9 km/h
Temperature: 37°F , 3°C
Wind Chill: 32°F , 0°C
Dew Point: 30°F , -1°C
Humidity: 75%
Barometer: 30.24 inHg , 1024 hPa
Clouds: Clear
Visibility: 10 miles , 16 km
2017/02/20 12:54 KIPT 201254Z 23005KT 10SM CLR 03/M01 A3024 RMK AO2 SLP242 T00281006
 
KELZ - Wellsville, New York, USA
Distance from station: W 68mi, 110km
Updated: Mon, 20-Feb-2017 7:56am EST
Overcast
Overcast
 Wind from varies
Wind: varies 3 mph , 6 km/h
Temperature: 32°F , 0°C
Dew Point: 28°F , -2°C
Humidity: 87%
Barometer: 30.23 inHg , 1023.7 hPa
Clouds: Overcast
Visibility: 7 miles , 11 km
Cloud details: Overcast 500 ft
2017/02/20 12:56 KELZ 201256Z AUTO VRB03KT 7SM OVC005 00/M02 A3023 RMK AO2 SLP254 T00001017
KSYR - Syracuse, New York, USA
Distance from station: NNE 72mi, 117km
Updated: Mon, 20-Feb-2017 7:54am EST
Few Clouds
Few Clouds
 Wind from NW
Wind: NW 10 mph , 17 km/h
Temperature: 28°F , -2°C
Wind Chill: 19°F , -7°C
Dew Point: 21°F , -6°C
Humidity: 74%
Barometer: 30.30 inHg , 1026.1 hPa
Clouds: Few Clouds
Visibility: 10 miles , 16 km
Cloud details: Few Clouds 20000 ft
2017/02/20 12:54 KSYR 201254Z 32009KT 10SM FEW200 M02/M06 A3030 RMK AO2 SLP260 T10171061
KAVP - Avoca/Wilkes B., Pennsylvania, USA
Distance from station: SE 74mi, 120km
Updated: Mon, 20-Feb-2017 7:54am EST
Clear
Clear
 Wind from N
Wind: N 7 mph , 11 km/h
Temperature: 37°F , 3°C
Wind Chill: 32°F , 0°C
Dew Point: 30°F , -1°C
Humidity: 75%
Barometer: 30.20 inHg , 1022.7 hPa
Clouds: Clear
Visibility: 10 miles , 16 km
2017/02/20 12:54 KAVP 201254Z 36006KT 10SM CLR 03/M01 A3020 RMK AO2 SLP229 T00281006